Time;durP1;ratioP1;P1;durP2;ratioP2;P2;SDS_P1;SDS_P2;PMS_P1;PMS_P2;Temp;Humidity;BMP_temperature;BMP_pressure;BME280_temperature;BME280_humidity;BME280_pressure;Samples;Min_cycle;Max_cycle;Signal;HPM_P1;HPM_P2
2023/12/05 00:02:05;;;;;;;;;;;-0.80;56.10;;;;;;4603288;30;114343;-80
2023/12/05 00:04:32;;;;;;;;;;;-0.90;56.10;;;;;;4603156;30;114311;-80
2023/12/05 00:06:59;;;;;;;;;;;-1.00;56.20;;;;;;4601010;30;115643;-82
2023/12/05 00:09:26;;;;;;;;;;;-1.10;55.90;;;;;;4602835;30;114720;-81
2023/12/05 00:11:53;;;;;;;;;;;-1.20;55.90;;;;;;4588100;30;114412;-78
2023/12/05 00:14:21;;;;;;;;;;;-1.30;55.80;;;;;;4574237;30;115186;-81
2023/12/05 00:16:48;;;;;;;;;;;-1.40;56.10;;;;;;4602800;30;115107;-79
2023/12/05 00:19:15;;;;;;;;;;;-1.50;56.30;;;;;;4605765;30;115094;-81
2023/12/05 00:21:42;;;;;;;;;;;-1.50;56.40;;;;;;4603710;30;114300;-79
2023/12/05 00:24:09;;;;;;;;;;;-1.50;56.50;;;;;;4603474;30;114502;-80
2023/12/05 00:26:36;;;;;;;;;;;-1.50;56.50;;;;;;4622909;30;115158;-80
2023/12/05 00:29:04;;;;;;;;;;;-1.40;56.90;;;;;;4593167;30;114840;-80
2023/12/05 00:31:31;;;;;;;;;;;-1.40;56.80;;;;;;4603403;30;114716;-79
2023/12/05 00:33:58;;;;;;;;;;;-1.40;57.00;;;;;;4603709;30;114754;-80
2023/12/05 00:36:26;;;;;;;;;;;-1.30;56.90;;;;;;4586218;30;115705;-80
2023/12/05 00:38:53;;;;;;;;;;;-1.30;57.10;;;;;;4602276;30;114579;-82
2023/12/05 00:41:20;;;;;;;;;;;-1.30;57.20;;;;;;4602636;30;114518;-80
2023/12/05 00:43:47;;;;;;;;;;;-1.30;57.30;;;;;;4603051;30;114363;-80
2023/12/05 00:46:14;;;;;;;;;;;-1.20;57.50;;;;;;4587146;30;114911;-78
2023/12/05 00:48:41;;;;;;;;;;;-1.10;57.50;;;;;;4602166;30;114611;-79
2023/12/05 00:51:08;;;;;;;;;;;-1.00;57.50;;;;;;4588066;30;114454;-80
2023/12/05 00:53:36;;;;;;;;;;;-1.00;57.50;;;;;;4601757;30;114809;-80
2023/12/05 00:56:03;;;;;;;;;;;-1.00;57.40;;;;;;4587084;30;115315;-80
2023/12/05 00:58:31;;;;;;;;;;;-1.10;57.30;;;;;;4587402;30;114772;-80
2023/12/05 01:00:58;;;;;;;;;;;-1.10;57.60;;;;;;4603041;30;114549;-80
2023/12/05 01:03:25;;;;;;;;;;;-1.10;57.80;;;;;;4603181;30;114342;-81
2023/12/05 01:05:53;;;;;;;;;;;-1.10;57.90;;;;;;4586059;30;118633;-80
2023/12/05 01:08:20;;;;;;;;;;;-1.10;57.60;;;;;;4602056;30;114896;-81
2023/12/05 01:10:47;;;;;;;;;;;-1.10;57.10;;;;;;4602836;30;114470;-80
2023/12/05 01:13:14;;;;;;;;;;;-1.20;57.20;;;;;;4602804;30;114464;-79
2023/12/05 01:15:41;;;;;;;;;;;-1.20;57.50;;;;;;4601741;30;116893;-78
2023/12/05 01:18:08;;;;;;;;;;;-1.20;57.40;;;;;;4586361;30;117285;-79
2023/12/05 01:20:35;;;;;;;;;;;-1.20;57.50;;;;;;4602437;30;114555;-79
2023/12/05 01:23:02;;;;;;;;;;;-1.30;57.40;;;;;;4602666;30;114520;-80
2023/12/05 01:25:29;;;;;;;;;;;-1.30;57.40;;;;;;4586366;30;114987;-79
2023/12/05 01:27:56;;;;;;;;;;;-1.30;57.40;;;;;;4601387;30;114914;-80
2023/12/05 01:30:23;;;;;;;;;;;-1.30;57.00;;;;;;4601886;30;114547;-79
2023/12/05 01:32:50;;;;;;;;;;;-1.30;57.00;;;;;;4602214;30;114787;-79
2023/12/05 01:35:17;;;;;;;;;;;-1.40;56.50;;;;;;4601129;30;116240;-79
2023/12/05 01:37:45;;;;;;;;;;;-1.50;56.30;;;;;;4601363;30;114887;-80
2023/12/05 01:40:12;;;;;;;;;;;-1.60;56.60;;;;;;4601810;30;114490;-78
2023/12/05 01:42:39;;;;;;;;;;;-1.60;56.90;;;;;;4580821;30;114881;-80
2023/12/05 01:45:06;;;;;;;;;;;-1.60;56.80;;;;;;4584447;30;114986;-79
2023/12/05 01:47:39;;;;;;;;;;;-1.60;56.70;;;;;;4596502;30;114988;-79
2023/12/05 01:50:25;;;;;;;;;;;-1.60;56.60;;;;;;4585080;30;114384;-80
2023/12/05 01:52:53;;;;;;;;;;;-1.70;56.60;;;;;;4584951;30;114480;-80
2023/12/05 01:55:20;;;;;;;;;;;-1.70;57.10;;;;;;4583765;30;114981;-80
2023/12/05 01:57:47;;;;;;;;;;;-1.60;57.10;;;;;;4570274;30;115278;-79
2023/12/05 02:00:15;;;;;;;;;;;-1.60;56.40;;;;;;4597326;30;114576;-80
2023/12/05 02:02:44;;;;;;;;;;;-1.60;56.40;;;;;;4597679;30;114679;-79
2023/12/05 02:05:13;;;;;;;;;;;-1.70;56.50;;;;;;4579031;30;116167;-80
2023/12/05 02:07:40;;;;;;;;;;;-1.60;56.50;;;;;;4592922;30;114943;-80
2023/12/05 02:10:08;;;;;;;;;;;-1.60;56.60;;;;;;4591958;30;114265;-80
2023/12/05 02:12:38;;;;;;;;;;;-1.60;56.30;;;;;;4603470;30;114861;-81
2023/12/05 02:15:07;;;;;;;;;;;-1.60;56.20;;;;;;4587523;30;115118;-80
2023/12/05 02:17:36;;;;;;;;;;;-1.60;56.30;;;;;;4584929;30;114659;-81
2023/12/05 02:20:15;;;;;;;;;;;-1.60;56.40;;;;;;4584550;30;114608;-79
2023/12/05 02:23:03;;;;;;;;;;;-1.50;56.40;;;;;;4583536;30;114652;-81
2023/12/05 02:25:53;;;;;;;;;;;-1.50;56.30;;;;;;4588213;30;114958;-80
2023/12/05 02:28:21;;;;;;;;;;;-1.40;56.50;;;;;;4598170;30;115178;-79
2023/12/05 02:30:48;;;;;;;;;;;-1.40;56.50;;;;;;4584374;30;114647;-80
2023/12/05 02:33:15;;;;;;;;;;;-1.40;56.70;;;;;;4569937;30;114587;-79
2023/12/05 02:35:42;;;;;;;;;;;-1.30;56.80;;;;;;4569577;30;115122;-78
2023/12/05 02:38:11;;;;;;;;;;;-1.30;56.60;;;;;;4585739;30;115842;-79
2023/12/05 02:40:41;;;;;;;;;;;-1.30;56.70;;;;;;4596056;30;114403;-78
2023/12/05 02:43:10;;;;;;;;;;;-1.20;56.30;;;;;;4594448;30;114509;-80
2023/12/05 02:45:38;;;;;;;;;;;-1.30;56.20;;;;;;4566444;30;114973;-79
2023/12/05 02:48:05;;;;;;;;;;;-1.20;56.00;;;;;;4551947;30;114730;-81
2023/12/05 02:50:32;;;;;;;;;;;-1.30;56.00;;;;;;4567805;30;114689;-79
2023/12/05 02:52:59;;;;;;;;;;;-1.30;56.30;;;;;;4566511;30;114511;-79
2023/12/05 02:55:26;;;;;;;;;;;-1.30;56.40;;;;;;4566886;30;115066;-79
2023/12/05 02:57:53;;;;;;;;;;;-1.20;56.10;;;;;;4579218;30;114723;-79
2023/12/05 03:00:20;;;;;;;;;;;-1.30;55.80;;;;;;4552515;30;115292;-80
2023/12/05 03:02:47;;;;;;;;;;;-1.30;55.70;;;;;;4567967;30;114491;-80
2023/12/05 03:05:15;;;;;;;;;;;-1.30;55.70;;;;;;4566190;30;116394;-80
2023/12/05 03:07:42;;;;;;;;;;;-1.30;55.80;;;;;;4566760;30;114642;-79
2023/12/05 03:10:09;;;;;;;;;;;-1.30;56.00;;;;;;4567146;30;114713;-80
2023/12/05 03:12:37;;;;;;;;;;;-1.30;56.10;;;;;;4567518;30;114457;-80
2023/12/05 03:15:04;;;;;;;;;;;-1.30;56.10;;;;;;4566642;30;115551;-80
2023/12/05 03:17:31;;;;;;;;;;;-1.20;56.10;;;;;;4566540;30;114738;-79
2023/12/05 03:19:59;;;;;;;;;;;-1.20;56.00;;;;;;4567338;30;115045;-80
2023/12/05 03:22:26;;;;;;;;;;;-1.20;55.80;;;;;;4567756;30;115351;-81
2023/12/05 03:24:53;;;;;;;;;;;-1.20;55.70;;;;;;4566369;30;115028;-79
2023/12/05 03:27:20;;;;;;;;;;;-1.30;55.40;;;;;;4566938;30;114912;-79
2023/12/05 03:29:48;;;;;;;;;;;-1.30;55.90;;;;;;4580134;30;114513;-79
2023/12/05 03:32:15;;;;;;;;;;;-1.30;56.10;;;;;;4567249;30;114554;-80
2023/12/05 03:34:42;;;;;;;;;;;-1.20;55.50;;;;;;4565658;30;116327;-80
2023/12/05 03:37:09;;;;;;;;;;;-1.20;55.60;;;;;;4566689;30;114749;-78
2023/12/05 03:39:36;;;;;;;;;;;-1.20;56.00;;;;;;4568099;30;114558;-79
2023/12/05 03:42:03;;;;;;;;;;;-1.10;56.20;;;;;;4567530;30;114329;-79
2023/12/05 03:44:30;;;;;;;;;;;-1.10;56.20;;;;;;4580503;30;115649;-79
2023/12/05 03:46:57;;;;;;;;;;;-1.00;56.00;;;;;;4581874;30;114896;-80
2023/12/05 03:49:24;;;;;;;;;;;-1.00;55.70;;;;;;4583701;30;114430;-81
2023/12/05 03:51:52;;;;;;;;;;;-1.10;55.50;;;;;;4584019;30;114306;-79
2023/12/05 03:54:19;;;;;;;;;;;-1.10;54.80;;;;;;4594804;30;115253;-79
2023/12/05 03:56:46;;;;;;;;;;;-1.20;55.50;;;;;;4583104;30;115787;-79
2023/12/05 03:59:13;;;;;;;;;;;-1.10;55.90;;;;;;4588753;30;114382;-79
2023/12/05 04:01:40;;;;;;;;;;;-1.10;55.90;;;;;;4599795;30;114171;-80
2023/12/05 04:04:07;;;;;;;;;;;-1.00;55.70;;;;;;4583115;30;115412;-80
2023/12/05 04:06:34;;;;;;;;;;;-1.00;55.60;;;;;;4583227;30;115790;-81
2023/12/05 04:09:04;;;;;;;;;;;-1.10;55.20;;;;;;4583822;30;114595;-80
2023/12/05 04:11:32;;;;;;;;;;;-1.10;54.70;;;;;;4586155;30;114588;-81
2023/12/05 04:13:59;;;;;;;;;;;-1.20;55.10;;;;;;4584390;30;114875;-78
2023/12/05 04:16:26;;;;;;;;;;;-1.30;54.70;;;;;;4585204;30;115756;-79
2023/12/05 04:18:53;;;;;;;;;;;-1.30;54.90;;;;;;4585455;30;114585;-79
2023/12/05 04:21:20;;;;;;;;;;;-1.30;55.40;;;;;;4586409;30;114413;-78
2023/12/05 04:23:47;;;;;;;;;;;-1.30;55.50;;;;;;4585259;30;114966;-81
2023/12/05 04:26:16;;;;;;;;;;;-1.30;55.50;;;;;;4585609;30;114841;-80
2023/12/05 04:28:43;;;;;;;;;;;-1.20;55.60;;;;;;4585203;30;114461;-81
2023/12/05 04:31:11;;;;;;;;;;;-1.20;55.90;;;;;;4586312;30;114389;-79
2023/12/05 04:33:39;;;;;;;;;;;-1.20;55.70;;;;;;4585455;30;114938;-81
2023/12/05 04:36:07;;;;;;;;;;;-1.10;55.60;;;;;;4585242;30;114714;-79
2023/12/05 04:38:35;;;;;;;;;;;-1.20;55.40;;;;;;4571207;30;114653;-80
2023/12/05 04:41:02;;;;;;;;;;;-1.10;55.70;;;;;;4586450;30;115347;-79
2023/12/05 04:43:30;;;;;;;;;;;-1.20;54.70;;;;;;4569240;30;115158;-80
2023/12/05 04:45:57;;;;;;;;;;;-1.30;55.00;;;;;;4585214;30;114696;-79
2023/12/05 04:48:25;;;;;;;;;;;-1.30;55.50;;;;;;4570206;30;114538;-80
2023/12/05 04:50:55;;;;;;;;;;;-1.30;55.10;;;;;;4585772;30;114480;-81
2023/12/05 04:53:22;;;;;;;;;;;-1.40;55.10;;;;;;4569911;30;116184;-81
2023/12/05 04:55:49;;;;;;;;;;;-1.40;54.80;;;;;;4569935;30;114643;-80
2023/12/05 04:58:16;;;;;;;;;;;-1.40;55.50;;;;;;4585889;30;114544;-81
2023/12/05 05:00:43;;;;;;;;;;;-1.40;55.60;;;;;;4585515;30;114799;-80
2023/12/05 05:03:11;;;;;;;;;;;-1.40;55.80;;;;;;4585716;30;115207;-78
2023/12/05 05:05:39;;;;;;;;;;;-1.40;56.10;;;;;;4585507;30;114670;-81
2023/12/05 05:08:06;;;;;;;;;;;-1.30;56.10;;;;;;4570627;30;114561;-80
2023/12/05 05:10:33;;;;;;;;;;;-1.30;56.10;;;;;;4585904;30;114276;-79
2023/12/05 05:13:00;;;;;;;;;;;-1.30;55.30;;;;;;4583000;30;116197;-79
2023/12/05 05:15:27;;;;;;;;;;;-1.30;55.10;;;;;;4584719;30;114652;-80
2023/12/05 05:17:56;;;;;;;;;;;-1.30;55.50;;;;;;4598549;30;114569;-79
2023/12/05 05:20:23;;;;;;;;;;;-1.30;55.90;;;;;;4585954;30;114286;-82
2023/12/05 05:22:50;;;;;;;;;;;-1.30;55.70;;;;;;4587379;30;115643;-80
2023/12/05 05:25:18;;;;;;;;;;;-1.20;56.10;;;;;;4571757;30;115136;-81
2023/12/05 05:27:45;;;;;;;;;;;-1.20;56.30;;;;;;4585333;30;114840;-80
2023/12/05 05:30:13;;;;;;;;;;;-1.10;56.00;;;;;;4585870;30;114449;-79
2023/12/05 05:32:40;;;;;;;;;;;-1.10;55.90;;;;;;4569438;30;115695;-79
2023/12/05 05:35:07;;;;;;;;;;;-1.10;55.60;;;;;;4584629;30;114778;-81
2023/12/05 05:37:36;;;;;;;;;;;-1.10;56.00;;;;;;4585202;30;114428;-81
2023/12/05 05:40:03;;;;;;;;;;;-1.10;55.80;;;;;;4585303;30;114608;-80
2023/12/05 05:42:33;;;;;;;;;;;-1.20;55.50;;;;;;4584497;30;114989;-80
2023/12/05 05:45:00;;;;;;;;;;;-1.20;55.30;;;;;;4572627;30;116901;-81
2023/12/05 05:47:28;;;;;;;;;;;-1.30;55.80;;;;;;4608601;30;114863;-80
2023/12/05 05:49:57;;;;;;;;;;;-1.20;56.20;;;;;;4587402;30;114478;-80
2023/12/05 05:52:24;;;;;;;;;;;-1.20;55.90;;;;;;4583202;30;115576;-80
2023/12/05 05:54:51;;;;;;;;;;;-1.20;56.20;;;;;;4584243;30;115075;-80
2023/12/05 05:57:18;;;;;;;;;;;-1.20;56.20;;;;;;4584771;30;114652;-80
2023/12/05 05:59:45;;;;;;;;;;;-1.20;56.20;;;;;;4584876;30;114400;-79
2023/12/05 06:02:13;;;;;;;;;;;-1.10;55.90;;;;;;4583859;30;114977;-79
2023/12/05 06:04:41;;;;;;;;;;;-1.10;56.20;;;;;;4584052;30;115008;-80
2023/12/05 06:07:08;;;;;;;;;;;-1.10;56.30;;;;;;4570233;30;114549;-79
2023/12/05 06:09:35;;;;;;;;;;;-1.20;55.90;;;;;;4570006;30;114804;-82
2023/12/05 06:12:03;;;;;;;;;;;-1.30;55.90;;;;;;4568927;30;118455;-81
2023/12/05 06:14:30;;;;;;;;;;;-1.30;56.30;;;;;;4584125;30;114659;-81
2023/12/05 06:16:57;;;;;;;;;;;-1.30;56.40;;;;;;4584576;30;115058;-80
2023/12/05 06:19:24;;;;;;;;;;;-1.30;56.50;;;;;;4592060;30;114506;-79
2023/12/05 06:21:51;;;;;;;;;;;-1.30;56.40;;;;;;4592720;30;115357;-81
2023/12/05 06:24:19;;;;;;;;;;;-1.30;56.50;;;;;;4578204;30;115488;-80
2023/12/05 06:26:46;;;;;;;;;;;-1.30;56.50;;;;;;4584298;30;115363;-80
2023/12/05 06:29:13;;;;;;;;;;;-1.30;56.70;;;;;;4577344;30;114976;-81
2023/12/05 06:31:40;;;;;;;;;;;-1.30;56.80;;;;;;4578439;30;114989;-80
2023/12/05 06:34:07;;;;;;;;;;;-1.20;56.80;;;;;;4592446;30;114759;-80
2023/12/05 06:36:34;;;;;;;;;;;-1.20;56.90;;;;;;4564888;30;114487;-80
2023/12/05 06:39:02;;;;;;;;;;;-1.20;57.00;;;;;;4590916;30;114507;-80
2023/12/05 06:41:30;;;;;;;;;;;-1.20;56.90;;;;;;4589073;30;114802;-82
2023/12/05 06:43:57;;;;;;;;;;;-1.10;57.00;;;;;;4581637;30;115003;-79
2023/12/05 06:46:28;;;;;;;;;;;-1.10;56.90;;;;;;4584260;30;114623;-81
2023/12/05 06:48:55;;;;;;;;;;;-1.10;57.10;;;;;;4568630;30;114407;-81
2023/12/05 06:51:22;;;;;;;;;;;-1.00;56.90;;;;;;4567767;30;116406;-80
2023/12/05 06:53:50;;;;;;;;;;;-1.00;57.10;;;;;;4569696;30;115337;-81
2023/12/05 06:56:18;;;;;;;;;;;-1.00;57.20;;;;;;4593898;30;114908;-79
2023/12/05 06:58:45;;;;;;;;;;;-1.00;57.20;;;;;;4592301;30;114422;-78
2023/12/05 07:01:12;;;;;;;;;;;-0.90;57.20;;;;;;4573938;30;118719;-78
2023/12/05 07:03:40;;;;;;;;;;;-0.90;57.20;;;;;;4575787;30;114844;-79
2023/12/05 07:06:19;;;;;;;;;;;-1.00;57.00;;;;;;4592608;30;116928;-81
2023/12/05 07:08:46;;;;;;;;;;;-1.00;57.20;;;;;;4591971;30;114826;-79
2023/12/05 07:11:14;;;;;;;;;;;-1.10;57.30;;;;;;4578342;30;115124;-79
2023/12/05 07:13:41;;;;;;;;;;;-1.10;57.50;;;;;;4590475;30;114578;-79
2023/12/05 07:16:12;;;;;;;;;;;-1.10;57.40;;;;;;4574833;30;114391;-80
2023/12/05 07:18:40;;;;;;;;;;;-1.00;57.40;;;;;;4591484;30;114605;-81
2023/12/05 07:21:08;;;;;;;;;;;-1.10;57.50;;;;;;4592132;30;114912;-81
2023/12/05 07:23:38;;;;;;;;;;;-1.10;57.50;;;;;;4575253;30;115161;-78
2023/12/05 07:26:07;;;;;;;;;;;-1.10;57.70;;;;;;4586286;30;114961;-79
2023/12/05 07:28:35;;;;;;;;;;;-1.10;57.60;;;;;;4590365;30;114350;-79
2023/12/05 07:31:02;;;;;;;;;;;-1.10;57.80;;;;;;4591220;30;114942;-81
2023/12/05 07:33:30;;;;;;;;;;;-1.10;57.80;;;;;;4589095;30;115921;-79
2023/12/05 07:35:57;;;;;;;;;;;-1.10;57.90;;;;;;4589398;30;114811;-79
2023/12/05 07:38:25;;;;;;;;;;;-1.10;58.00;;;;;;4599611;30;114738;-80
2023/12/05 07:40:53;;;;;;;;;;;-1.10;58.00;;;;;;4600707;30;115331;-80
2023/12/05 07:43:20;;;;;;;;;;;-1.10;58.00;;;;;;4591102;30;116217;-80
2023/12/05 07:45:47;;;;;;;;;;;-1.20;57.90;;;;;;4580534;30;114847;-78
2023/12/05 07:48:15;;;;;;;;;;;-1.10;58.10;;;;;;4596822;30;114499;-78
2023/12/05 07:50:43;;;;;;;;;;;-1.00;58.10;;;;;;4595726;30;114876;-80
2023/12/05 07:53:10;;;;;;;;;;;-0.90;58.00;;;;;;4588310;30;114719;-81
2023/12/05 07:55:38;;;;;;;;;;;-0.90;58.00;;;;;;4593164;30;115148;-79
2023/12/05 07:58:06;;;;;;;;;;;-0.90;57.90;;;;;;4579419;30;114971;-80
2023/12/05 08:00:34;;;;;;;;;;;-0.90;58.00;;;;;;4564731;30;114927;-79
2023/12/05 08:03:01;;;;;;;;;;;-0.70;58.30;;;;;;4592647;30;117311;-79
2023/12/05 08:05:28;;;;;;;;;;;-0.50;58.50;;;;;;4590295;30;114788;-79
2023/12/05 08:07:56;;;;;;;;;;;-0.20;58.40;;;;;;4590544;30;115138;-80
2023/12/05 08:10:23;;;;;;;;;;;0.00;58.30;;;;;;4593313;30;115586;-78
2023/12/05 08:12:50;;;;;;;;;;;0.20;57.10;;;;;;4596429;30;114703;-78
2023/12/05 08:15:18;;;;;;;;;;;0.20;57.50;;;;;;4578946;30;115474;-79
2023/12/05 08:17:48;;;;;;;;;;;0.30;57.60;;;;;;4594431;30;114819;-81
2023/12/05 08:20:15;;;;;;;;;;;0.40;57.10;;;;;;4577053;30;115290;-80
2023/12/05 08:22:42;;;;;;;;;;;0.50;57.20;;;;;;4595124;30;115086;-78
2023/12/05 08:25:11;;;;;;;;;;;0.50;57.20;;;;;;4567213;30;114775;-79
2023/12/05 08:27:38;;;;;;;;;;;0.70;57.60;;;;;;4588636;30;115200;-78
2023/12/05 08:30:06;;;;;;;;;;;0.80;57.20;;;;;;4570310;30;115711;-78
2023/12/05 08:32:33;;;;;;;;;;;0.80;56.30;;;;;;4584407;30;115955;-79
2023/12/05 08:35:00;;;;;;;;;;;0.80;57.00;;;;;;4594801;30;114596;-79
2023/12/05 08:37:31;;;;;;;;;;;0.70;56.10;;;;;;4608159;30;114310;-78
2023/12/05 08:39:59;;;;;;;;;;;0.70;55.70;;;;;;4603197;30;115512;-80
2023/12/05 08:42:27;;;;;;;;;;;0.60;56.40;;;;;;4602340;30;114958;-78
2023/12/05 08:44:55;;;;;;;;;;;0.60;56.30;;;;;;4603199;30;114539;-78
2023/12/05 08:47:22;;;;;;;;;;;0.50;56.10;;;;;;4603377;30;114611;-78
2023/12/05 08:49:49;;;;;;;;;;;0.50;56.10;;;;;;4601307;30;115475;-78
2023/12/05 08:52:21;;;;;;;;;;;0.40;56.30;;;;;;4602196;30;115039;-80
2023/12/05 08:54:49;;;;;;;;;;;0.40;56.10;;;;;;4602766;30;114737;-79
2023/12/05 08:57:16;;;;;;;;;;;0.30;56.40;;;;;;4602758;30;114680;-78
2023/12/05 08:59:43;;;;;;;;;;;0.40;56.40;;;;;;4602176;30;115187;-78
2023/12/05 09:02:10;;;;;;;;;;;0.50;56.50;;;;;;4586761;30;114593;-77
2023/12/05 09:04:37;;;;;;;;;;;0.50;56.80;;;;;;4601501;30;114658;-78
2023/12/05 09:07:05;;;;;;;;;;;0.60;56.40;;;;;;4598581;30;114563;-78
2023/12/05 09:09:33;;;;;;;;;;;0.60;56.60;;;;;;4581590;30;115880;-78
2023/12/05 09:12:00;;;;;;;;;;;0.60;56.50;;;;;;4585492;30;116305;-81
2023/12/05 09:14:27;;;;;;;;;;;0.60;56.00;;;;;;4590851;30;114441;-79
2023/12/05 09:16:54;;;;;;;;;;;0.60;56.30;;;;;;4586102;30;114527;-79
2023/12/05 09:19:22;;;;;;;;;;;0.60;56.50;;;;;;4597192;30;117141;-79
2023/12/05 09:21:52;;;;;;;;;;;0.70;56.60;;;;;;4582627;30;114650;-80
2023/12/05 09:24:19;;;;;;;;;;;0.70;56.80;;;;;;4599421;30;115024;-79
2023/12/05 09:26:47;;;;;;;;;;;0.90;56.20;;;;;;4578195;30;114768;-80
2023/12/05 09:29:17;;;;;;;;;;;0.90;56.60;;;;;;4579436;30;116910;-79
2023/12/05 09:31:45;;;;;;;;;;;1.00;56.50;;;;;;4582117;30;114425;-80
2023/12/05 09:34:12;;;;;;;;;;;1.00;56.30;;;;;;4586607;30;115032;-79
2023/12/05 09:36:40;;;;;;;;;;;1.00;56.10;;;;;;4597405;30;114700;-79
2023/12/05 09:39:08;;;;;;;;;;;0.90;56.50;;;;;;4557693;30;118645;-79
2023/12/05 09:41:37;;;;;;;;;;;1.00;56.40;;;;;;4583789;30;114844;-79
2023/12/05 09:44:04;;;;;;;;;;;1.00;56.20;;;;;;4569006;30;114582;-79
2023/12/05 09:46:31;;;;;;;;;;;1.00;56.50;;;;;;4587689;30;114493;-80
2023/12/05 09:49:10;;;;;;;;;;;1.00;56.40;;;;;;4584070;30;114977;-80
2023/12/05 09:51:39;;;;;;;;;;;1.00;56.40;;;;;;4570357;30;114685;-80
2023/12/05 09:54:06;;;;;;;;;;;1.00;55.70;;;;;;4569971;30;115147;-78
2023/12/05 09:56:34;;;;;;;;;;;0.90;56.00;;;;;;4584902;30;114361;-78
2023/12/05 09:59:01;;;;;;;;;;;0.80;56.50;;;;;;4584924;30;114481;-80
2023/12/05 10:01:28;;;;;;;;;;;0.90;56.40;;;;;;4584586;30;114705;-79
2023/12/05 10:03:57;;;;;;;;;;;0.90;56.30;;;;;;4584901;30;114737;-80
2023/12/05 10:06:24;;;;;;;;;;;0.90;56.40;;;;;;4583993;30;114487;-80
2023/12/05 10:08:52;;;;;;;;;;;0.90;56.70;;;;;;4567836;30;115435;-81
2023/12/05 10:11:20;;;;;;;;;;;1.00;56.40;;;;;;4583994;30;115720;-80
2023/12/05 10:13:47;;;;;;;;;;;1.00;56.70;;;;;;4585071;30;114493;-80
2023/12/05 10:16:14;;;;;;;;;;;1.20;57.10;;;;;;4584015;30;114657;-78
2023/12/05 10:18:41;;;;;;;;;;;1.30;56.50;;;;;;4584023;30;115038;-79
2023/12/05 10:21:11;;;;;;;;;;;1.20;55.80;;;;;;4583872;30;115800;-79
2023/12/05 10:23:41;;;;;;;;;;;1.20;55.70;;;;;;4572090;30;114716;-79
2023/12/05 10:26:08;;;;;;;;;;;1.10;56.30;;;;;;4585343;30;114809;-77
2023/12/05 10:28:47;;;;;;;;;;;1.20;56.50;;;;;;4571639;30;115014;-79
2023/12/05 10:31:14;;;;;;;;;;;1.30;56.80;;;;;;4586871;30;115159;-79
2023/12/05 10:33:43;;;;;;;;;;;1.40;56.30;;;;;;4583769;30;114241;-81
2023/12/05 10:36:13;;;;;;;;;;;1.40;56.00;;;;;;4570842;30;114261;-79
2023/12/05 10:38:43;;;;;;;;;;;1.30;55.80;;;;;;4568672;30;117998;-78
2023/12/05 10:41:10;;;;;;;;;;;1.20;56.00;;;;;;4583909;30;114642;-78
2023/12/05 10:43:46;;;;;;;;;;;1.20;56.10;;;;;;4568737;30;114531;-77
2023/12/05 10:46:13;;;;;;;;;;;1.20;56.40;;;;;;4583291;30;114624;-78
2023/12/05 10:48:41;;;;;;;;;;;1.20;56.60;;;;;;4596819;30;115529;-78
2023/12/05 10:51:08;;;;;;;;;;;1.30;56.70;;;;;;4583259;30;114677;-79
2023/12/05 10:53:35;;;;;;;;;;;1.40;56.30;;;;;;4597463;30;114404;-78
2023/12/05 10:56:16;;;;;;;;;;;1.30;56.20;;;;;;4597159;30;114500;-79
2023/12/05 10:58:43;;;;;;;;;;;1.40;56.50;;;;;;4583064;30;115158;-78
2023/12/05 11:01:10;;;;;;;;;;;1.50;56.70;;;;;;4595793;30;115253;-79
2023/12/05 11:03:38;;;;;;;;;;;1.60;56.30;;;;;;4596610;30;114780;-80
2023/12/05 11:06:07;;;;;;;;;;;1.50;55.90;;;;;;4582686;30;114678;-79
2023/12/05 11:08:35;;;;;;;;;;;1.40;55.70;;;;;;4583192;30;114985;-79
2023/12/05 11:11:03;;;;;;;;;;;1.20;56.00;;;;;;4596115;30;114794;-79
2023/12/05 11:13:32;;;;;;;;;;;1.20;56.20;;;;;;4582965;30;115120;-78
2023/12/05 11:16:08;;;;;;;;;;;1.20;56.40;;;;;;4569717;30;114596;-80
2023/12/05 11:18:36;;;;;;;;;;;1.30;56.40;;;;;;4596252;30;114678;-79
2023/12/05 11:21:27;;;;;;;;;;;1.30;56.40;;;;;;4584062;30;114665;-79
2023/12/05 11:24:12;;;;;;;;;;;1.30;56.30;;;;;;4596856;30;115324;-78
2023/12/05 11:26:47;;;;;;;;;;;1.20;56.40;;;;;;4585029;30;114511;-78
2023/12/05 11:29:21;;;;;;;;;;;1.20;56.80;;;;;;4572174;30;115333;-78
2023/12/05 11:31:54;;;;;;;;;;;1.40;57.00;;;;;;4585171;30;114722;-78
2023/12/05 11:34:24;;;;;;;;;;;1.50;57.10;;;;;;4601039;30;114513;-78
2023/12/05 11:37:13;;;;;;;;;;;1.70;57.20;;;;;;4598595;30;114528;-79
2023/12/05 11:39:40;;;;;;;;;;;1.90;57.20;;;;;;4575903;30;116434;-78
2023/12/05 11:42:09;;;;;;;;;;;2.00;56.80;;;;;;4581845;30;115097;-79
2023/12/05 11:44:39;;;;;;;;;;;2.10;56.80;;;;;;4587141;30;114880;-77
2023/12/05 11:47:16;;;;;;;;;;;2.10;56.30;;;;;;4600485;30;114444;-79
2023/12/05 11:49:55;;;;;;;;;;;2.00;56.40;;;;;;4584167;30;115068;-79
2023/12/05 11:52:22;;;;;;;;;;;2.00;56.60;;;;;;4599803;30;114595;-77
2023/12/05 11:54:50;;;;;;;;;;;2.10;56.80;;;;;;4585412;30;114547;-78
2023/12/05 11:57:18;;;;;;;;;;;2.20;56.80;;;;;;4592626;30;114498;-78
2023/12/05 11:59:46;;;;;;;;;;;2.20;56.80;;;;;;4567369;30;115498;-80
2023/12/05 12:02:13;;;;;;;;;;;2.30;56.80;;;;;;4567598;30;114753;-80
2023/12/05 12:04:41;;;;;;;;;;;2.40;56.70;;;;;;4554549;30;114749;-80
2023/12/05 12:07:09;;;;;;;;;;;2.40;56.70;;;;;;4568684;30;114412;-78
2023/12/05 12:09:38;;;;;;;;;;;2.50;56.60;;;;;;4554300;30;115074;-79
2023/12/05 12:12:06;;;;;;;;;;;2.60;56.70;;;;;;4597254;30;115264;-78
2023/12/05 12:14:37;;;;;;;;;;;2.60;56.80;;;;;;4583738;30;114474;-76
2023/12/05 12:17:05;;;;;;;;;;;2.70;56.80;;;;;;4583180;30;114612;-79
2023/12/05 12:19:35;;;;;;;;;;;2.70;56.90;;;;;;4581361;30;115057;-79
2023/12/05 12:22:06;;;;;;;;;;;2.70;56.80;;;;;;4567932;30;114882;-78
2023/12/05 12:24:33;;;;;;;;;;;2.70;56.90;;;;;;4583203;30;114544;-78
2023/12/05 12:27:00;;;;;;;;;;;2.80;56.80;;;;;;4554526;30;114744;-79
2023/12/05 12:29:27;;;;;;;;;;;2.80;56.70;;;;;;4576083;30;115300;-79
2023/12/05 12:32:09;;;;;;;;;;;2.70;56.40;;;;;;4582862;30;117101;-77
2023/12/05 12:34:38;;;;;;;;;;;2.60;56.20;;;;;;4571310;30;114369;-78
2023/12/05 12:37:06;;;;;;;;;;;2.50;56.10;;;;;;4574959;30;114801;-79
2023/12/05 12:39:46;;;;;;;;;;;2.30;54.80;;;;;;4597399;30;115021;-79
2023/12/05 12:45:40;;;;;;;;;;;1.70;56.00;;;;;;4567617;30;114362;-78
2023/12/05 12:48:07;;;;;;;;;;;1.60;56.00;;;;;;4569737;30;114461;-78
2023/12/05 12:50:35;;;;;;;;;;;1.50;56.30;;;;;;4568844;30;114965;-77
2023/12/05 12:53:02;;;;;;;;;;;1.50;56.60;;;;;;4580374;30;114682;-80
2023/12/05 12:55:32;;;;;;;;;;;1.50;56.80;;;;;;4559282;30;114569;-79
2023/12/05 12:57:59;;;;;;;;;;;1.60;56.70;;;;;;4553981;30;114741;-78
2023/12/05 13:00:29;;;;;;;;;;;1.60;56.90;;;;;;4548673;30;118612;-78
2023/12/05 13:03:04;;;;;;;;;;;1.60;56.60;;;;;;4566229;30;117475;-80
2023/12/05 13:05:31;;;;;;;;;;;1.60;56.80;;;;;;4598699;30;114597;-79
2023/12/05 13:08:00;;;;;;;;;;;1.60;57.00;;;;;;4582146;30;114730;-80
2023/12/05 13:10:30;;;;;;;;;;;1.60;57.10;;;;;;4572478;30;115709;-79
2023/12/05 13:12:58;;;;;;;;;;;1.70;56.40;;;;;;4594556;30;115176;-79
2023/12/05 13:15:28;;;;;;;;;;;1.50;56.70;;;;;;4586834;30;114532;-79
2023/12/05 13:17:59;;;;;;;;;;;1.50;57.00;;;;;;4560635;30;114634;-79
2023/12/05 13:20:28;;;;;;;;;;;1.60;57.00;;;;;;4576090;30;114955;-77
2023/12/05 13:22:55;;;;;;;;;;;1.60;57.10;;;;;;4585888;30;114914;-78
2023/12/05 13:25:22;;;;;;;;;;;1.60;57.20;;;;;;4585607;30;114620;-78
2023/12/05 13:28:02;;;;;;;;;;;1.60;57.10;;;;;;4574961;30;114791;-78
2023/12/05 13:30:30;;;;;;;;;;;1.60;57.00;;;;;;4553848;30;114973;-79
2023/12/05 13:32:57;;;;;;;;;;;1.60;56.70;;;;;;4579008;30;114513;-78
2023/12/05 13:35:24;;;;;;;;;;;1.50;56.90;;;;;;4584986;30;114665;-78
2023/12/05 13:37:51;;;;;;;;;;;1.40;57.30;;;;;;4584693;30;114553;-79
2023/12/05 13:40:18;;;;;;;;;;;1.50;57.40;;;;;;4584315;30;114954;-78
2023/12/05 13:42:45;;;;;;;;;;;1.60;57.60;;;;;;4568991;30;115724;-79
2023/12/05 13:45:13;;;;;;;;;;;1.60;57.50;;;;;;4569297;30;114704;-78
2023/12/05 13:47:43;;;;;;;;;;;1.70;57.60;;;;;;4585646;30;114554;-78
2023/12/05 13:50:10;;;;;;;;;;;1.80;57.60;;;;;;4568937;30;118062;-78
2023/12/05 13:52:37;;;;;;;;;;;1.80;57.30;;;;;;4581807;30;114820;-77
2023/12/05 13:55:05;;;;;;;;;;;1.70;57.10;;;;;;4567645;30;114406;-79
2023/12/05 13:57:32;;;;;;;;;;;1.70;57.30;;;;;;4553207;30;114367;-78
2023/12/05 14:00:01;;;;;;;;;;;1.70;57.30;;;;;;4543160;30;118090;-80
2023/12/05 14:02:33;;;;;;;;;;;1.70;57.40;;;;;;4553765;30;114595;-78
2023/12/05 14:05:00;;;;;;;;;;;1.70;57.30;;;;;;4553299;30;114476;-78
2023/12/05 14:07:30;;;;;;;;;;;1.60;57.40;;;;;;4568902;30;114578;-80
2023/12/05 14:09:57;;;;;;;;;;;1.60;57.40;;;;;;4552529;30;114909;-78
2023/12/05 14:12:36;;;;;;;;;;;1.60;57.40;;;;;;4567703;30;115475;-77
2023/12/05 14:15:05;;;;;;;;;;;1.60;57.50;;;;;;4569216;30;114598;-80
2023/12/05 14:17:32;;;;;;;;;;;1.50;57.50;;;;;;4585023;30;114413;-79
2023/12/05 14:20:00;;;;;;;;;;;1.40;57.60;;;;;;4583263;30;115660;-79